Latest Coastal Weather Observations for King Island Airport

IDV60701

Issued at 10:31 am EST Tuesday 17 September 2019 (issued every 10 minutes, with the page automatically refreshed every 10 minutes)

About coastal observations | Map of coastal stations | Coastal observations for VIC | Marine services | Other Formats
Station Details ID: 098017 Name: KING ISLAND AIRPORT Lat: -39.88 Lon: 143.89 Height: 35.42 m
Data from the previous 72 hours. | See also: Recent months at King Island Airport
Date/Time
EST
Wind Sea
Height
m
Swell Vis
km
Cloud Weather Temp
°C
Press
hPa
Rain since
9am
mm
Dir  Spd
kts
Gust
kts
Height
m
Period
s
Dir
17/10:30am NW 3 6 - - - - 10 Clear - 11.1 1029.7 0.2
17/10:00am NNW 5 7 - - - - 10 - - 10.6 1029.6 0.2
17/09:30am NNE 5 7 - - - - 10 - - 10.8 1029.7 0.0
17/09:00am NNE 4 6 - - - - 10 - - 9.9 1029.6 0.2
17/08:30am ENE 2 3 - - - - 10 - - 8.2 1029.6 0.2
17/08:00am E 1 3 - - - - 10 - - 5.6 1029.6 0.2
17/07:30am E 3 4 - - - - 10 - - 2.9 1029.2 0.2
17/07:00am CALM 0 0 - - - - 10 - - 1.2 1028.9 0.2
17/06:30am CALM 0 0 - - - - 10 - - 1.1 1028.5 0.2
17/06:00am CALM 0 0 - - - - 10 Mostly clear - 2.4 1028.0 0.2
17/05:30am CALM 0 0 - - - - 10 Partly cloudy - 2.2 1027.6 0.2
17/05:00am CALM 0 0 - - - - 10 Partly cloudy - 2.1 1027.4 0.2
17/04:30am CALM 0 0 - - - - 10 Cloudy - 1.8 1027.3 0.2
17/04:00am E 1 3 - - - - 10 Partly cloudy - 1.3 1027.1 0.2
17/03:30am CALM 0 4 - - - - 10 - - 1.0 1027.1 0.2
17/03:00am SE 4 4 - - - - 10 - - 1.1 1027.2 0.2
17/02:30am SE 4 5 - - - - 10 Partly cloudy - 2.0 1027.4 0.2
17/02:00am CALM 0 3 - - - - 10 Partly cloudy - 2.0 1027.6 0.2
17/01:30am CALM 0 0 - - - - 10 - - 2.6 1027.8 0.2
17/01:00am S 3 4 - - - - 10 Partly cloudy - 4.1 1027.9 0.2
17/12:30am SSW 8 10 - - - - 10 Partly cloudy - 5.5 1027.9 0.2
17/12:00am SSE 5 6 - - - - 10 Mostly clear - 3.5 1027.8 0.2
 
Date/Time
EST
Wind Sea
Height
m
Swell Vis
km
Cloud Weather Temp
°C
Press
hPa
Rain since
9am
mm
Dir  Spd
kts
Gust
kts
Height
m
Period
s
Dir
16/11:30pm SSE 6 7 - - - - 10 - - 4.6 1027.8 0.2
16/11:00pm SSE 5 7 - - - - 10 - - 4.5 1027.7 0.2
16/10:30pm SSW 4 5 - - - - 10 Partly cloudy - 4.9 1027.7 0.2
16/10:00pm SSW 8 10 - - - - 10 Partly cloudy - 5.7 1027.8 0.2
16/09:30pm SSE 2 6 - - - - 10 Partly cloudy - 5.2 1027.5 0.2
16/09:00pm SE 5 6 - - - - 10 Mostly clear - 5.7 1027.1 0.2
16/08:30pm SSE 7 10 - - - - 10 Partly cloudy - 6.3 1027.1 0.2
16/08:00pm SSW 9 12 - - - - 10 - - 6.6 1026.6 0.2
16/07:30pm SSE 4 5 - - - - 10 Partly cloudy - 5.9 1026.3 0.2
16/07:00pm SSE 4 6 - - - - 10 Partly cloudy - 6.2 1025.9 0.2
16/06:30pm SSE 5 8 - - - - 10 Partly cloudy - 6.3 1025.5 0.2
16/06:00pm S 7 10 - - - - 10 Cloudy Showers 6.9 1025.2 0.2
16/05:30pm SSW 11 14 - - - - 10 Partly cloudy - 8.5 1024.6 0.2
16/05:00pm SSW 14 18 - - - - 10 Partly cloudy - 9.6 1024.0 0.2
16/04:30pm SSW 11 18 - - - - 10 Partly cloudy - 9.5 1023.7 0.2
16/04:00pm SSW 17 23 - - - - 10 Partly cloudy - 9.8 1023.4 0.2
16/03:30pm SW 14 21 - - - - 10 Partly cloudy - 9.4 1023.3 0.2
16/03:14pm WSW 11 17 - - - - 10 Partly cloudy - 8.0 1023.2 0.2
16/03:03pm SW 16 22 - - - - 5 Partly cloudy - 7.2 1023.3 0.2
16/03:00pm SW 18 26 - - - - 6 Cloudy Rain 7.4 1023.3 0.2
16/02:33pm SSW 17 27 - - - - 10 Partly cloudy - 9.9 1022.7 0.0
16/02:30pm SSW 19 27 - - - - 10 Partly cloudy - 10.4 1022.7 0.0
16/02:00pm SSW 18 24 - - - - 10 - - 10.6 1022.4 0.0
16/01:30pm S 14 22 - - - - 10 Partly cloudy - 10.4 1022.3 0.0
16/01:00pm SSW 18 24 - - - - 10 Partly cloudy - 10.1 1022.2 0.0
16/12:30pm SW 19 24 - - - - 10 Partly cloudy - 10.8 1021.9 0.0
16/12:00pm SW 19 25 - - - - 10 Partly cloudy - 11.0 1021.8 0.0
16/11:30am SW 20 27 - - - - 10 Partly cloudy - 11.2 1021.7 0.0
16/11:00am SW 18 25 - - - - 10 Partly cloudy - 11.4 1021.4 0.0
16/10:30am SW 19 27 - - - - 10 Partly cloudy - 10.0 1021.3 0.0
16/10:00am SSW 15 22 - - - - 10 Partly cloudy - 9.9 1021.1 0.0
16/09:30am SSW 23 31 - - - - 10 Partly cloudy - 9.1 1020.6 0.0
16/09:00am SSW 17 28 - - - - 10 Cloudy Showers 7.3 1020.1 11.8
16/08:53am SW 17 28 - - - - 10 Partly cloudy - 8.6 1020.0 11.6
16/08:30am SSW 16 23 - - - - 10 Partly cloudy - 8.9 1019.7 11.4
16/08:00am SW 19 23 - - - - 10 Partly cloudy - 9.0 1019.4 11.4
16/07:47am SW 17 27 - - - - 10 Partly cloudy - 8.9 1019.1 11.4
16/07:30am SW 16 23 - - - - 10 Partly cloudy - 8.4 1018.9 11.4
16/07:00am SW 18 24 - - - - 10 Partly cloudy - 8.4 1018.3 11.4
16/06:30am SW 17 25 - - - - 10 Partly cloudy - 8.6 1017.9 11.4
16/06:00am SW 21 28 - - - - 10 Mostly cloudy Recent precip. 8.6 1017.5 11.4
16/05:30am SW 21 30 - - - - 10 Partly cloudy - 8.5 1016.9 11.2
16/05:00am SW 21 33 - - - - 10 Partly cloudy - 8.6 1016.7 11.2
16/04:54am SW 19 33 - - - - 10 Partly cloudy - 9.1 1016.5 11.2
16/04:30am SW 20 28 - - - - 10 Partly cloudy - 9.2 1016.1 11.2
16/04:10am SW 20 30 - - - - 10 Partly cloudy - 9.1 1015.8 11.2
16/04:00am SW 22 29 - - - - 10 Partly cloudy - 9.3 1015.6 11.2
16/03:30am SW 22 31 - - - - 10 Partly cloudy - 9.3 1015.5 11.2
16/03:00am SW 21 29 - - - - 10 Cloudy - 9.5 1014.7 11.2
16/02:41am SW 22 32 - - - - 10 Partly cloudy - 9.7 1014.6 11.2
16/02:30am SW 21 28 - - - - 10 Partly cloudy - 9.7 1014.5 11.2
16/02:00am WSW 21 30 - - - - 10 Partly cloudy - 9.8 1014.5 11.2
16/01:30am WSW 21 32 - - - - 10 Partly cloudy - 10.2 1014.3 11.2
16/01:00am WSW 21 32 - - - - 10 Partly cloudy - 10.7 1014.1 11.2
16/12:45am W 20 31 - - - - 10 Partly cloudy - 10.7 1014.0 11.2
16/12:30am W 19 25 - - - - 10 Partly cloudy - 10.8 1013.8 11.2
16/12:17am W 18 28 - - - - 10 Partly cloudy - 10.5 1013.8 11.2
16/12:00am W 20 28 - - - - 10 Cloudy - 10.7 1013.9 11.2
 
Date/Time
EST
Wind Sea
Height
m
Swell Vis
km
Cloud Weather Temp
°C
Press
hPa
Rain since
9am
mm
Dir  Spd
kts
Gust
kts
Height
m
Period
s
Dir
15/11:30pm W 19 26 - - - - 10 Partly cloudy - 10.6 1013.8 11.2
15/11:00pm W 18 26 - - - - 10 Partly cloudy - 10.5 1014.0 11.2
15/10:30pm W 19 27 - - - - 10 Partly cloudy - 10.4 1013.8 11.2
15/10:00pm W 17 22 - - - - 10 Partly cloudy - 10.3 1014.0 11.2
15/09:30pm W 19 25 - - - - 10 Partly cloudy - 10.4 1013.7 11.2
15/09:00pm W 17 24 - - - - 10 Mostly clear - 10.4 1013.6 11.2
15/08:30pm W 16 22 - - - - 10 Partly cloudy - 10.6 1013.4 11.2
15/08:00pm W 13 18 - - - - 10 Partly cloudy - 10.9 1013.2 11.2
15/07:30pm W 13 19 - - - - 10 Partly cloudy - 10.9 1013.2 11.2
15/07:00pm W 14 20 - - - - 10 Partly cloudy - 11.1 1013.2 11.2
15/06:56pm W 13 19 - - - - 10 Partly cloudy - 11.0 1013.3 11.2
15/06:30pm W 11 16 - - - - 10 Partly cloudy - 11.2 1013.1 11.2
15/06:00pm WNW 14 19 - - - - 10 Cloudy - 11.2 1013.0 11.2
15/05:30pm W 14 18 - - - - 10 Cloudy - 11.1 1012.8 11.2
15/05:00pm WNW 12 15 - - - - 10 Cloudy - 10.9 1012.4 11.2
15/04:30pm WNW 12 15 - - - - 10 Partly cloudy - 10.3 1012.2 11.2
15/04:23pm W 11 15 - - - - 10 Partly cloudy - 10.2 1012.2 11.2
15/04:00pm WSW 8 11 - - - - 2 Partly cloudy - 11.1 1012.3 11.2
15/03:30pm WSW 7 9 - - - - 4 Partly cloudy - 11.3 1012.4 10.8
15/03:16pm WSW 6 8 - - - - 5 Partly cloudy - 11.6 1012.4 10.8
15/03:07pm WSW 8 9 - - - - 5 Partly cloudy - 11.5 1012.4 10.8
15/03:00pm SW 7 10 - - - - 4 Cloudy Showers 11.5 1012.3 10.8
15/02:47pm SW 9 11 - - - - 5 Cloudy - 11.6 1012.6 10.6
15/02:30pm SW 8 10 - - - - 10 Partly cloudy - 11.8 1012.4 10.4
15/02:00pm WSW 6 10 - - - - 10 Partly cloudy - 12.1 1012.6 10.4
15/01:30pm SW 9 12 - - - - 10 Partly cloudy - 11.9 1013.4 10.0
15/01:00pm SW 9 12 - - - - 10 Partly cloudy - 12.1 1013.3 9.2
15/12:33pm SW 10 14 - - - - 10 Cloudy - 12.3 1013.7 9.2
15/12:30pm SW 11 14 - - - - 8 Partly cloudy - 12.2 1013.8 9.2
15/12:00pm W 9 15 - - - - 4 Cloudy Rain 12.5 1014.3 6.4
15/11:30am NW 10 12 - - - - 4 Partly cloudy - 12.6 1014.1 2.8
15/11:00am WNW 6 8 - - - - 3 Cloudy - 13.0 1014.1 0.2
15/10:47am WNW 8 9 - - - - 5 Cloudy - 13.0 1014.2 0.2
15/10:30am WNW 7 9 - - - - 9 Cloudy - 13.1 1014.6 0.0
15/10:00am W 9 11 - - - - 10 Partly cloudy - 13.3 1015.3 0.0
15/09:30am W 8 11 - - - - 10 Partly cloudy - 13.4 1015.4 0.0
15/09:00am W 9 12 - - - - 10 Mostly cloudy - 13.1 1015.8 0.8
15/08:30am WNW 9 11 - - - - 8 Cloudy - 13.3 1015.5 0.8
15/08:00am W 9 13 - - - - 8 Cloudy - 13.1 1015.8 0.8
15/07:30am W 10 14 - - - - 9 Cloudy - 13.0 1015.5 0.8
15/07:00am W 12 15 - - - - 9 Cloudy - 13.1 1015.3 0.8
15/06:30am WNW 9 12 - - - - 10 Cloudy - 13.0 1015.1 0.8
15/06:00am WNW 10 14 - - - - 10 Cloudy - 13.0 1015.2 0.8
15/05:30am WNW 11 14 - - - - 10 Cloudy - 13.0 1015.0 0.8
15/05:13am WNW 10 14 - - - - 10 Partly cloudy - 13.0 1014.9 0.8
15/05:00am WNW 10 13 - - - - 10 Cloudy - 13.0 1014.6 0.8
15/04:30am WNW 11 17 - - - - 10 Partly cloudy - 13.1 1014.6 0.8
15/04:00am WNW 13 17 - - - - 10 Partly cloudy - 13.3 1014.8 0.6
15/03:30am WNW 12 17 - - - - 10 Partly cloudy - 13.3 1014.8 0.6
15/03:00am WNW 13 17 - - - - 10 Cloudy Rain 13.5 1015.3 0.6
15/02:30am WNW 13 16 - - - - 10 Partly cloudy - 13.4 1015.6 0.6
15/02:00am WNW 13 17 - - - - 10 Partly cloudy - 13.4 1015.8 0.6
15/01:30am NW 16 21 - - - - 10 Partly cloudy - 13.5 1016.1 0.6
15/01:00am NW 16 20 - - - - 10 Partly cloudy - 13.5 1016.5 0.6
15/12:30am NW 17 22 - - - - 10 Partly cloudy - 13.5 1016.4 0.6
15/12:00am NW 17 23 - - - - 10 Cloudy Rain 13.8 1016.7 0.2
 
Date/Time
EST
Wind Sea
Height
m
Swell Vis
km
Cloud Weather Temp
°C
Press
hPa
Rain since
9am
mm
Dir  Spd
kts
Gust
kts
Height
m
Period
s
Dir
14/11:30pm NW 17 20 - - - - 10 Partly cloudy - 13.9 1017.5 0.2
14/11:00pm NNW 18 23 - - - - 10 Partly cloudy - 13.7 1017.2 0.2
14/10:30pm NNW 16 21 - - - - 10 Partly cloudy - 13.4 1017.8 0.2
14/10:00pm NNW 12 17 - - - - 10 Partly cloudy - 12.8 1018.1 0.2
14/09:30pm NNW 11 14 - - - - 10 Partly cloudy - 12.5 1018.4 0.2
14/09:00pm N 14 18 - - - - 9 Cloudy Rain 12.2 1018.9 0.0
14/08:30pm NNW 11 14 - - - - 8 Partly cloudy - 12.1 1019.3 0.0
14/08:00pm NNW 10 13 - - - - 10 Cloudy - 12.2 1020.0 0.0
14/07:30pm NNW 11 16 - - - - 10 Partly cloudy - 12.2 1020.0 0.0
14/07:00pm NNW 12 16 - - - - 10 Partly cloudy - 12.0 1019.5 0.0
14/06:30pm NNW 11 14 - - - - 10 Cloudy - 12.0 1019.5 0.0
14/06:00pm NNW 12 17 - - - - 10 Partly cloudy - 11.8 1020.1 0.0
14/05:30pm NW 13 16 - - - - 10 Partly cloudy - 11.8 1020.5 0.0
14/05:00pm NW 12 17 - - - - 10 - - 12.5 1020.7 0.0
14/04:30pm NW 18 22 - - - - 10 Partly cloudy - 12.7 1021.0 0.0
14/04:00pm NW 18 22 - - - - 10 Partly cloudy - 12.8 1021.5 0.0
14/03:30pm NNW 17 22 - - - - 10 Partly cloudy - 13.3 1021.2 0.0
14/03:00pm NNW 16 20 - - - - 10 Mostly cloudy - 12.7 1021.4 0.0
14/02:30pm NW 16 20 - - - - 10 Partly cloudy - 13.4 1021.8 0.0
14/02:00pm NW 16 21 - - - - 10 Cloudy - 14.1 1022.5 0.0
14/01:30pm NW 15 19 - - - - 10 Partly cloudy - 13.4 1022.8 0.0
14/01:00pm WNW 14 18 - - - - 10 Partly cloudy - 13.8 1023.1 0.0
14/12:30pm WNW 12 18 - - - - 10 Cloudy - 13.2 1023.4 0.0
14/12:00pm WNW 13 17 - - - - 10 Partly cloudy - 13.4 1023.8 0.0
14/11:30am NW 13 17 - - - - 10 Cloudy - 13.4 1024.0 0.0
14/11:00am WNW 12 16 - - - - 10 Cloudy - 12.5 1024.5 0.0

Other formats

Comma delimited format used in spreadsheet applications
http://www.bom.gov.au/fwo/IDV60701/IDV60701.94850.axf

JavaScript Object Notation format (JSON) in row-major order
http://www.bom.gov.au/fwo/IDV60701/IDV60701.94850.json

Data quality

Most of these data are generated automatically and are frequently updated. Quality checks on data are not normally performed. It is possible for incorrect values to appear. Refer to information at About Latest Weather Observations and please check the disclaimer before using these data.